Time;durP1;ratioP1;P1;durP2;ratioP2;P2;SDS_P1;SDS_P2;PMS_P1;PMS_P2;Temp;Humidity;BMP_temperature;BMP_pressure;BME280_temperature;BME280_humidity;BME280_pressure;Samples;Min_cycle;Max_cycle;Signal;HPM_P1;HPM_P2
2022/02/22 00:01:09;;;;;;;0.17;0.03;;;;;;;22.87;56.85;98792.81;5072782;28;20028;-59
2022/02/22 00:03:36;;;;;;;0.30;0.10;;;;;;;22.85;57.05;98803.19;5071439;28;20387;-60
2022/02/22 00:06:05;;;;;;;0.10;0.08;;;;;;;22.81;57.32;98823.88;5072564;28;20024;-59
2022/02/22 00:08:31;;;;;;;0.20;0.08;;;;;;;22.79;56.46;98826.03;5072795;28;20028;-59
2022/02/22 00:10:58;;;;;;;0.10;0.00;;;;;;;22.78;56.58;98827.13;5072546;28;20662;-60
2022/02/22 00:13:24;;;;;;;0.60;0.40;;;;;;;22.77;58.53;98833.69;5072693;28;20036;-59
2022/02/22 00:15:50;;;;;;;0.00;0.00;;;;;;;22.74;56.18;98853.38;5070438;28;20051;-59
2022/02/22 00:18:15;;;;;;;0.00;0.00;;;;;;;22.74;58.29;98864.31;5052446;28;20122;-60
2022/02/22 00:20:41;;;;;;;0.38;0.10;;;;;;;22.72;56.56;98867.31;5052480;28;20028;-60
2022/02/22 00:23:07;;;;;;;0.20;0.20;;;;;;;22.71;57.41;98878.50;5052440;28;20021;-59
2022/02/22 00:25:33;;;;;;;0.75;0.20;;;;;;;22.67;56.51;98883.63;5052519;28;20095;-59
2022/02/22 00:27:58;;;;;;;0.20;0.00;;;;;;;22.67;57.92;98893.75;5052403;28;20120;-59
2022/02/22 00:30:23;;;;;;;0.40;0.20;;;;;;;22.65;56.66;98901.38;5052452;28;20464;-59
2022/02/22 00:32:48;;;;;;;0.50;0.10;;;;;;;22.68;56.91;98911.88;5056253;28;20064;-59
2022/02/22 00:35:14;;;;;;;0.30;0.00;;;;;;;22.65;56.99;98923.28;5072359;28;20028;-59
2022/02/22 00:37:41;;;;;;;0.40;0.10;;;;;;;22.64;57.50;98922.47;5072227;28;20028;-59
2022/02/22 00:40:08;;;;;;;0.08;0.00;;;;;;;22.64;57.15;98947.13;5072197;28;20031;-59
2022/02/22 00:42:34;;;;;;;0.10;0.00;;;;;;;22.64;58.56;98943.53;5072185;28;20418;-60
2022/02/22 00:44:59;;;;;;;0.20;0.10;;;;;;;22.60;57.22;98954.16;5072425;28;20070;-59
2022/02/22 00:47:26;;;;;;;0.50;0.10;;;;;;;22.59;56.94;98957.97;5057666;28;20480;-59
2022/02/22 00:49:52;;;;;;;0.80;0.15;;;;;;;22.57;57.68;98960.13;5051880;28;20033;-59
2022/02/22 00:52:17;;;;;;;0.57;0.20;;;;;;;22.59;57.43;98962.63;5052037;28;20032;-59
2022/02/22 00:54:42;;;;;;;0.55;0.05;;;;;;;22.57;57.67;98993.00;5058749;22;20088;-59
2022/02/22 00:57:08;;;;;;;0.10;0.00;;;;;;;22.54;57.44;98985.28;5052029;28;20033;-59
2022/02/22 00:59:33;;;;;;;0.28;0.13;;;;;;;22.54;57.80;98995.41;5052145;28;20021;-59
2022/02/22 01:01:58;;;;;;;1.02;0.10;;;;;;;22.54;58.45;98998.13;5051964;28;20037;-59
2022/02/22 01:04:24;;;;;;;0.30;0.08;;;;;;;22.51;56.90;99005.75;5052101;28;20364;-59
2022/02/22 01:06:50;;;;;;;0.10;0.00;;;;;;;22.50;57.02;99020.50;5051756;28;20029;-59
2022/02/22 01:09:15;;;;;;;0.00;0.00;;;;;;;22.49;58.80;99039.91;5052081;28;20384;-60
2022/02/22 01:11:42;;;;;;;1.20;0.20;;;;;;;22.51;58.34;99026.84;5051902;28;20033;-59
2022/02/22 01:14:07;;;;;;;0.30;0.10;;;;;;;22.50;59.57;99045.13;5051678;28;20112;-59
2022/02/22 01:16:33;;;;;;;0.20;0.05;;;;;;;22.48;58.21;99055.50;5051793;28;20124;-59
2022/02/22 01:18:59;;;;;;;0.22;0.10;;;;;;;22.46;57.98;99068.59;5051463;28;20453;-59
2022/02/22 01:21:24;;;;;;;0.38;0.10;;;;;;;22.46;59.52;99068.59;5050671;28;20025;-60
2022/02/22 01:23:50;;;;;;;1.48;0.28;;;;;;;22.46;57.90;99073.25;5051512;28;20021;-59
2022/02/22 01:26:15;;;;;;;0.30;0.10;;;;;;;22.43;56.85;99074.56;5050660;28;20025;-59
2022/02/22 01:28:41;;;;;;;1.02;0.10;;;;;;;22.41;57.31;99100.53;5051841;28;20066;-59
2022/02/22 01:31:06;;;;;;;0.98;0.20;;;;;;;22.43;58.96;99112.91;5055612;28;20033;-59
2022/02/22 01:33:31;;;;;;;0.45;0.05;;;;;;;22.43;58.02;99115.63;5055676;28;20059;-59
2022/02/22 01:35:56;;;;;;;0.20;0.10;;;;;;;22.40;58.28;99116.13;5054814;28;20028;-59
2022/02/22 01:38:23;;;;;;;0.73;0.20;;;;;;;22.40;57.43;99123.50;5055627;28;20033;-59
2022/02/22 01:40:52;;;;;;;0.55;0.13;;;;;;;22.39;58.04;99133.63;5055263;28;20021;-59
2022/02/22 01:43:17;;;;;;;0.28;0.10;;;;;;;22.40;57.98;99148.97;5055498;28;20024;-60
2022/02/22 01:45:42;;;;;;;0.40;0.10;;;;;;;22.40;58.57;99162.66;5055227;28;20029;-59
2022/02/22 01:48:08;;;;;;;0.80;0.40;;;;;;;22.40;58.44;99167.31;5055446;28;20419;-59
2022/02/22 01:50:33;;;;;;;0.10;0.10;;;;;;;22.38;57.85;99167.53;5055432;28;20060;-59
2022/02/22 01:52:59;;;;;;;0.20;0.10;;;;;;;22.36;57.36;99174.34;5055126;28;20071;-59
2022/02/22 01:55:25;;;;;;;0.77;0.10;;;;;;;22.35;58.33;99198.16;5055218;28;20028;-59
2022/02/22 01:57:50;;;;;;;0.38;0.10;;;;;;;22.34;58.08;99196.47;5054764;28;20036;-59
2022/02/22 02:00:16;;;;;;;0.30;0.10;;;;;;;22.33;58.87;99186.56;5055214;28;20356;-59
2022/02/22 02:02:41;;;;;;;0.10;0.05;;;;;;;22.34;59.62;99212.91;5055034;28;20024;-59
2022/02/22 02:05:08;;;;;;;0.20;0.10;;;;;;;22.32;57.78;99216.91;5066956;28;20055;-59
2022/02/22 02:07:34;;;;;;;0.32;0.00;;;;;;;22.33;58.13;99221.31;5069571;28;20025;-59
2022/02/22 02:09:59;;;;;;;0.60;0.15;;;;;;;22.32;59.65;99236.91;5062720;28;20059;-59
2022/02/22 02:12:24;;;;;;;0.28;0.10;;;;;;;22.29;57.74;99231.91;5074667;28;20024;-60
2022/02/22 02:14:50;;;;;;;0.10;0.10;;;;;;;22.30;57.48;99232.75;5073334;28;20059;-59
2022/02/22 02:17:15;;;;;;;0.65;0.20;;;;;;;22.32;59.49;99242.38;5074922;28;20036;-59
2022/02/22 02:19:41;;;;;;;0.10;0.00;;;;;;;22.28;57.15;99248.56;5074656;28;20135;-59
2022/02/22 02:22:07;;;;;;;0.85;0.20;;;;;;;22.29;57.07;99231.09;5074675;28;20030;-59
2022/02/22 02:24:32;;;;;;;0.40;0.30;;;;;;;22.29;57.57;99225.59;5074783;28;20032;-59
2022/02/22 02:26:57;;;;;;;0.10;0.10;;;;;;;22.27;58.27;99239.53;5056481;28;20028;-59
2022/02/22 02:29:25;;;;;;;1.45;0.10;;;;;;;22.27;59.15;99253.22;5054676;28;20029;-59
2022/02/22 02:31:51;;;;;;;0.80;0.10;;;;;;;22.25;58.96;99260.84;5054190;28;20029;-58
2022/02/22 02:34:20;;;;;;;0.17;0.10;;;;;;;22.22;57.62;99261.31;5054443;28;20056;-59
2022/02/22 02:36:46;;;;;;;0.55;0.20;;;;;;;22.23;59.22;99271.19;5069972;28;20036;-59
2022/02/22 02:39:12;;;;;;;0.20;0.10;;;;;;;22.26;58.06;99280.81;5074376;28;20039;-59
2022/02/22 02:41:42;;;;;;;0.10;0.10;;;;;;;22.22;58.34;99285.94;5074253;28;20031;-59
2022/02/22 02:44:10;;;;;;;0.32;0.10;;;;;;;22.24;59.58;99311.19;5073850;28;20049;-59
2022/02/22 02:46:37;;;;;;;0.35;0.05;;;;;;;22.20;59.37;99299.03;5073011;28;20027;-59
2022/02/22 02:49:03;;;;;;;0.55;0.10;;;;;;;22.24;58.24;99302.97;5074405;28;20472;-59
2022/02/22 02:51:28;;;;;;;0.70;0.10;;;;;;;22.24;58.36;99304.88;5074211;28;20024;-59
2022/02/22 02:53:55;;;;;;;0.15;0.10;;;;;;;22.22;60.31;99318.78;5072129;28;20076;-59
2022/02/22 02:56:24;;;;;;;1.27;0.20;;;;;;;22.21;58.83;99330.81;5071848;28;20036;-59
2022/02/22 02:58:57;;;;;;;0.40;0.05;;;;;;;22.19;58.52;99341.16;5061523;28;20032;-59
2022/02/22 03:01:23;;;;;;;1.45;0.43;;;;;;;22.18;58.85;99342.22;5066166;28;20035;-59
2022/02/22 03:03:49;;;;;;;1.48;0.20;;;;;;;22.18;58.63;99347.69;5073913;28;20028;-59
2022/02/22 03:06:14;;;;;;;0.10;0.10;;;;;;;22.21;59.31;99358.19;5073832;28;20028;-59
2022/02/22 03:08:39;;;;;;;0.10;0.00;;;;;;;22.18;59.51;99345.78;5073847;28;20036;-59
2022/02/22 03:11:05;;;;;;;0.50;0.10;;;;;;;22.17;59.93;99370.63;5073704;28;20031;-59
2022/02/22 03:13:30;;;;;;;0.77;0.45;;;;;;;22.17;58.25;99382.44;5073796;28;20029;-59
2022/02/22 03:15:55;;;;;;;0.25;0.00;;;;;;;22.14;58.49;99377.41;5073241;28;20597;-59
2022/02/22 03:18:20;;;;;;;0.17;0.10;;;;;;;22.16;60.12;99385.38;5073709;28;20024;-59
2022/02/22 03:20:46;;;;;;;0.30;0.17;;;;;;;22.15;59.11;99413.81;5073444;28;20021;-59
2022/02/22 03:23:11;;;;;;;0.40;0.10;;;;;;;22.17;59.41;99408.94;5073546;28;20020;-59
2022/02/22 03:25:36;;;;;;;0.73;0.10;;;;;;;22.13;58.23;99424.16;5062855;28;20053;-58
2022/02/22 03:28:05;;;;;;;0.70;0.15;;;;;;;22.14;58.32;99428.56;5053178;28;20025;-59
2022/02/22 03:30:32;;;;;;;0.03;0.00;;;;;;;22.12;59.46;99427.97;5052236;28;20302;-59
2022/02/22 03:32:58;;;;;;;0.93;0.38;;;;;;;22.08;58.56;99426.78;5053145;28;20033;-59
2022/02/22 03:35:24;;;;;;;1.00;0.13;;;;;;;22.11;58.48;99424.41;5053374;28;20043;-58
2022/02/22 03:37:49;;;;;;;0.40;0.10;;;;;;;22.14;58.79;99434.06;5053254;28;20480;-59
2022/02/22 03:40:14;;;;;;;0.10;0.10;;;;;;;22.13;59.03;99452.38;5053613;28;20033;-59
2022/02/22 03:42:44;;;;;;;0.20;0.10;;;;;;;22.10;59.04;99436.41;5053115;28;20086;-59
2022/02/22 03:45:11;;;;;;;0.88;0.10;;;;;;;22.09;58.36;99464.00;5053080;28;20076;-59
2022/02/22 03:47:37;;;;;;;0.10;0.00;;;;;;;22.11;59.72;99459.16;5053207;28;20029;-59
2022/02/22 03:50:04;;;;;;;1.45;0.10;;;;;;;22.09;59.41;99477.69;5052760;28;20112;-59
2022/02/22 03:52:30;;;;;;;0.30;0.20;;;;;;;22.08;59.76;99486.97;5052588;28;20021;-59
2022/02/22 03:54:56;;;;;;;0.68;0.20;;;;;;;22.08;59.22;99497.91;5056863;28;20070;-59
2022/02/22 03:57:21;;;;;;;0.00;0.00;;;;;;;22.06;58.94;99494.59;5073016;28;20020;-60
2022/02/22 03:59:47;;;;;;;0.10;0.00;;;;;;;22.07;58.54;99507.19;5072672;28;20057;-59
2022/02/22 04:02:12;;;;;;;0.28;0.08;;;;;;;22.12;60.70;99515.56;5073317;28;20374;-59
2022/02/22 04:04:37;;;;;;;0.85;0.20;;;;;;;22.08;59.73;99530.75;5072690;28;20020;-59
2022/02/22 04:07:03;;;;;;;0.25;0.05;;;;;;;22.07;59.39;99546.34;5072630;28;20052;-59
2022/02/22 04:09:28;;;;;;;1.10;0.00;;;;;;;22.06;58.94;99546.56;5072815;28;20025;-59
2022/02/22 04:11:53;;;;;;;0.10;0.10;;;;;;;22.04;59.18;99524.88;5072896;28;20126;-59
2022/02/22 04:14:18;;;;;;;0.57;0.20;;;;;;;22.04;58.77;99535.00;5072692;28;20452;-59
2022/02/22 04:16:44;;;;;;;0.95;0.10;;;;;;;22.04;58.94;99535.00;5072489;28;20020;-59
2022/02/22 04:19:09;;;;;;;0.52;0.10;;;;;;;22.05;58.19;99547.63;5072809;28;20448;-60
2022/02/22 04:21:34;;;;;;;0.70;0.10;;;;;;;22.04;59.47;99551.41;5072625;28;20020;-59
2022/02/22 04:24:01;;;;;;;0.25;0.10;;;;;;;22.06;59.83;99538.38;5072148;28;20028;-58
2022/02/22 04:26:27;;;;;;;0.40;0.10;;;;;;;22.05;59.45;99553.13;5052800;28;20047;-59
2022/02/22 04:28:54;;;;;;;0.60;0.00;;;;;;;22.02;59.95;99564.47;5051217;28;20047;-59
2022/02/22 04:31:19;;;;;;;0.13;0.10;;;;;;;22.03;58.30;99574.38;5052560;28;20032;-59
2022/02/22 04:33:45;;;;;;;0.38;0.10;;;;;;;22.00;59.56;99580.25;5052122;28;20033;-59
2022/02/22 04:36:10;;;;;;;0.22;0.00;;;;;;;22.00;59.35;99572.06;5052236;28;20029;-58
2022/02/22 04:38:35;;;;;;;0.35;0.15;;;;;;;21.99;59.02;99570.38;5052427;28;20028;-59
2022/02/22 04:41:00;;;;;;;0.30;0.20;;;;;;;22.00;59.45;99580.25;5052156;28;20028;-59
2022/02/22 04:43:26;;;;;;;0.88;0.10;;;;;;;21.98;60.30;99580.50;5052337;28;20024;-59
2022/02/22 04:45:51;;;;;;;0.32;0.10;;;;;;;21.99;59.86;99570.38;5051901;28;20053;-59
2022/02/22 04:48:17;;;;;;;0.25;0.10;;;;;;;22.00;57.90;99577.53;5052324;28;20331;-59
2022/02/22 04:50:43;;;;;;;0.20;0.10;;;;;;;21.97;60.38;99592.50;5051954;28;20533;-59
2022/02/22 04:53:09;;;;;;;0.75;0.10;;;;;;;21.96;58.21;99592.72;5051945;28;20538;-59
2022/02/22 04:55:35;;;;;;;0.10;0.10;;;;;;;21.98;59.21;99604.28;5063978;28;20032;-59
2022/02/22 04:58:00;;;;;;;0.30;0.00;;;;;;;21.97;58.99;99613.56;5071879;28;20069;-59
2022/02/22 05:00:26;;;;;;;0.00;0.00;;;;;;;22.00;59.17;99613.09;5072215;28;20032;-58
2022/02/22 05:02:52;;;;;;;0.10;0.10;;;;;;;23.05;54.21;99620.19;5071928;28;20016;-59
2022/02/22 05:05:17;;;;;;;1.05;0.35;;;;;;;23.43;53.73;99616.28;5075036;28;20020;-59
2022/02/22 05:07:42;;;;;;;0.70;0.20;;;;;;;23.61;53.51;99646.41;5076017;28;20460;-59
2022/02/22 05:10:10;;;;;;;0.47;0.08;;;;;;;23.72;52.97;99636.56;5076001;28;20028;-59
2022/02/22 05:12:35;;;;;;;0.25;0.10;;;;;;;23.82;51.90;99646.94;5076140;28;20020;-59
2022/02/22 05:15:01;;;;;;;0.32;0.10;;;;;;;23.88;52.57;99648.75;5075817;28;20171;-59
2022/02/22 05:17:26;;;;;;;0.25;0.10;;;;;;;23.95;51.86;99649.47;5076033;28;20028;-59
2022/02/22 05:19:51;;;;;;;0.35;0.20;;;;;;;23.97;51.25;99667.38;5075610;28;20476;-59
2022/02/22 05:22:17;;;;;;;0.38;0.20;;;;;;;24.03;50.66;99662.84;5075918;28;20040;-59
2022/02/22 05:24:42;;;;;;;0.25;0.00;;;;;;;24.04;51.47;99677.41;5068252;28;20031;-59
2022/02/22 05:27:08;;;;;;;0.10;0.00;;;;;;;24.04;51.48;99678.25;5055824;28;20108;-59
2022/02/22 05:29:33;;;;;;;1.00;0.10;;;;;;;24.08;51.31;99673.94;5055790;28;20622;-59
2022/02/22 05:31:59;;;;;;;0.10;0.00;;;;;;;24.08;50.80;99676.69;5054128;28;20201;-59
2022/02/22 05:34:25;;;;;;;2.40;0.20;;;;;;;24.09;50.47;99675.63;5055641;28;20070;-59
2022/02/22 05:36:50;;;;;;;0.85;0.10;;;;;;;24.09;49.93;99681.13;5055434;28;20024;-59
2022/02/22 05:39:16;;;;;;;0.40;0.10;;;;;;;24.10;50.39;99681.94;5055641;28;20066;-59
2022/02/22 05:41:41;;;;;;;1.25;0.45;;;;;;;24.08;50.02;99684.94;5055379;28;20120;-59
2022/02/22 05:44:07;;;;;;;1.27;0.20;;;;;;;24.13;49.79;99698.78;5055356;28;20097;-59
2022/02/22 05:46:32;;;;;;;0.98;0.20;;;;;;;24.16;50.01;99695.56;5055560;28;20028;-59
2022/02/22 05:48:57;;;;;;;0.25;0.00;;;;;;;24.18;49.68;99696.16;5055270;28;20024;-59
2022/02/22 05:51:23;;;;;;;0.20;0.15;;;;;;;24.19;49.86;99697.84;5055448;28;20025;-59
2022/02/22 05:53:48;;;;;;;0.10;0.10;;;;;;;24.20;49.27;99707.75;5054927;28;20047;-59
2022/02/22 05:56:14;;;;;;;0.00;0.00;;;;;;;24.24;49.62;99706.19;5074791;28;20409;-59
2022/02/22 05:58:39;;;;;;;0.08;0.08;;;;;;;24.22;49.28;99713.84;5075207;28;20463;-59
2022/02/22 06:01:05;;;;;;;0.65;0.10;;;;;;;24.25;49.29;99707.03;5075035;28;20074;-59
2022/02/22 06:03:30;;;;;;;0.28;0.10;;;;;;;24.22;49.72;99719.34;5075122;28;20028;-59
2022/02/22 06:05:56;;;;;;;0.05;0.03;;;;;;;24.24;49.21;99714.44;5074755;28;20127;-59
2022/02/22 06:08:22;;;;;;;0.75;0.10;;;;;;;24.25;48.63;99716.09;5075186;28;20511;-59
2022/02/22 06:10:48;;;;;;;0.55;0.20;;;;;;;24.25;48.90;99713.38;5074891;28;20036;-59
2022/02/22 06:13:14;;;;;;;0.40;0.10;;;;;;;24.28;49.66;99710.13;5074959;28;20031;-59
2022/02/22 06:15:39;;;;;;;0.10;0.08;;;;;;;24.27;48.50;99716.72;5074389;28;20016;-59
2022/02/22 06:18:05;;;;;;;1.13;0.20;;;;;;;24.28;49.02;99745.00;5074632;28;20036;-59
2022/02/22 06:20:32;;;;;;;0.40;0.00;;;;;;;24.37;48.62;99731.81;5075158;28;20032;-59
2022/02/22 06:22:57;;;;;;;0.17;0.10;;;;;;;24.29;48.91;99739.31;5074642;28;20399;-59
2022/02/22 06:25:25;;;;;;;1.08;0.15;;;;;;;24.32;48.21;99745.38;5059498;28;20021;-59
2022/02/22 06:27:52;;;;;;;0.73;0.20;;;;;;;24.30;48.56;99742.88;5054346;28;20100;-59
2022/02/22 06:30:18;;;;;;;0.85;0.10;;;;;;;24.30;47.90;99760.19;5054681;28;20112;-59
2022/02/22 06:32:44;;;;;;;0.00;0.00;;;;;;;24.30;47.33;99765.69;5054496;28;20071;-59
2022/02/22 06:35:10;;;;;;;0.17;0.17;;;;;;;24.33;48.11;99769.03;5054426;28;20476;-59
2022/02/22 06:37:36;;;;;;;0.17;0.05;;;;;;;24.35;48.07;99778.72;5054545;28;20029;-59
2022/02/22 06:40:05;;;;;;;0.30;0.00;;;;;;;24.32;47.80;99784.69;5054105;28;20025;-59
2022/02/22 06:42:31;;;;;;;0.03;0.00;;;;;;;24.32;48.62;99781.94;5054428;28;20032;-59
2022/02/22 06:44:56;;;;;;;0.22;0.08;;;;;;;24.35;48.73;99783.38;5054185;28;20021;-59
2022/02/22 06:47:21;;;;;;;0.20;0.00;;;;;;;24.42;48.47;99795.09;5054390;28;20021;-59
2022/02/22 06:49:47;;;;;;;0.55;0.10;;;;;;;24.39;47.84;99806.56;5054054;28;20044;-59
2022/02/22 06:52:12;;;;;;;0.30;0.00;;;;;;;24.32;48.54;99814.88;5054110;28;20036;-59
2022/02/22 06:54:38;;;;;;;0.00;0.00;;;;;;;24.37;47.41;99816.94;5061764;28;20064;-59
2022/02/22 06:57:03;;;;;;;0.00;0.00;;;;;;;24.38;48.21;99827.69;5074027;28;20043;-59
2022/02/22 06:59:29;;;;;;;0.10;0.00;;;;;;;24.38;47.90;99844.19;5074123;28;20025;-59
2022/02/22 07:01:55;;;;;;;0.45;0.20;;;;;;;24.40;48.32;99863.19;5073624;28;20465;-59
2022/02/22 07:04:20;;;;;;;0.47;0.10;;;;;;;24.46;48.26;99845.75;5074070;28;20021;-59
2022/02/22 07:06:46;;;;;;;0.95;0.10;;;;;;;24.39;47.51;99867.00;5073793;28;20046;-59
2022/02/22 07:09:11;;;;;;;0.20;0.10;;;;;;;24.46;47.21;99856.72;5073892;28;20032;-59
2022/02/22 07:11:36;;;;;;;0.10;0.00;;;;;;;24.42;47.48;99861.03;5073875;28;20074;-59
2022/02/22 07:14:01;;;;;;;0.10;0.03;;;;;;;24.43;47.93;99869.03;5073325;28;20028;-59
2022/02/22 07:16:27;;;;;;;0.38;0.10;;;;;;;24.40;47.67;99885.16;5073845;28;20032;-59
2022/02/22 07:18:52;;;;;;;0.13;0.08;;;;;;;24.47;48.32;99902.34;5073474;28;20483;-59
2022/02/22 07:21:18;;;;;;;0.20;0.10;;;;;;;24.39;47.35;99916.44;5073772;28;20020;-59
2022/02/22 07:23:43;;;;;;;0.10;0.10;;;;;;;24.42;47.60;99926.94;5070020;28;20103;-59
2022/02/22 07:26:08;;;;;;;0.68;0.15;;;;;;;24.39;47.96;99931.00;5053074;28;20028;-59
2022/02/22 07:28:33;;;;;;;0.32;0.20;;;;;;;24.41;47.65;99936.28;5053074;28;20021;-59
2022/02/22 07:30:59;;;;;;;0.65;0.10;;;;;;;24.39;47.13;99927.41;5053279;28;20434;-59
2022/02/22 07:33:24;;;;;;;0.15;0.10;;;;;;;24.47;47.22;99938.06;5053473;28;20027;-59
2022/02/22 07:35:49;;;;;;;0.17;0.00;;;;;;;24.43;47.50;99936.88;5052985;28;20021;-58
2022/02/22 07:38:14;;;;;;;0.10;0.10;;;;;;;24.44;46.89;99942.13;5053380;28;20025;-59
2022/02/22 07:40:40;;;;;;;0.47;0.00;;;;;;;24.43;47.76;99940.44;5053261;28;20112;-58
2022/02/22 07:43:06;;;;;;;0.20;0.20;;;;;;;24.43;47.73;99951.44;5053181;28;20522;-59
2022/02/22 07:45:31;;;;;;;0.47;0.10;;;;;;;24.42;48.54;99962.66;5053224;28;20025;-59
2022/02/22 07:47:57;;;;;;;0.65;0.10;;;;;;;24.42;47.75;99960.75;5052774;28;20443;-59
2022/02/22 07:50:22;;;;;;;1.42;0.10;;;;;;;24.48;47.53;99964.47;5053252;28;20052;-59
2022/02/22 07:52:47;;;;;;;0.43;0.10;;;;;;;24.46;48.10;99955.63;5052986;28;20074;-59
2022/02/22 07:55:14;;;;;;;0.40;0.10;;;;;;;24.48;48.09;99958.97;5067918;28;20058;-59
2022/02/22 07:57:39;;;;;;;0.60;0.20;;;;;;;24.47;47.51;99965.53;5052043;28;20037;-59
2022/02/22 08:00:06;;;;;;;0.08;0.00;;;;;;;24.45;47.15;99965.78;5052728;28;20033;-59
2022/02/22 08:02:31;;;;;;;0.30;0.10;;;;;;;24.43;47.56;99965.19;5052898;28;20115;-59
2022/02/22 08:04:56;;;;;;;0.38;0.13;;;;;;;24.41;46.61;99961.00;5052556;28;20095;-59
2022/02/22 08:07:21;;;;;;;0.20;0.20;;;;;;;24.44;47.15;99974.25;5052915;28;20383;-59
2022/02/22 08:09:47;;;;;;;0.52;0.20;;;;;;;24.43;47.29;99978.91;5052808;28;20029;-59
2022/02/22 08:12:13;;;;;;;0.10;0.00;;;;;;;24.49;47.78;99980.72;5052665;28;20075;-59
2022/02/22 08:14:38;;;;;;;0.00;0.00;;;;;;;24.50;47.71;99987.06;5052593;28;20075;-59
2022/02/22 08:17:04;;;;;;;0.00;0.00;;;;;;;24.45;47.16;99995.16;5052584;28;20028;-59
2022/02/22 08:19:30;;;;;;;0.20;0.17;;;;;;;24.47;47.20;100007.59;5052668;28;20028;-59
2022/02/22 08:21:56;;;;;;;0.77;0.10;;;;;;;24.51;47.04;100008.78;5052207;28;20043;-59
2022/02/22 08:24:22;;;;;;;1.25;0.10;;;;;;;24.53;46.39;100016.84;5063160;28;20100;-59
2022/02/22 08:26:51;;;;;;;0.43;0.00;;;;;;;24.53;47.79;100016.84;5072340;28;20036;-59
2022/02/22 08:29:16;;;;;;;0.65;0.13;;;;;;;24.43;47.54;100022.03;5071159;28;20442;-59
2022/02/22 08:31:42;;;;;;;0.38;0.00;;;;;;;24.46;47.08;100033.38;5071898;28;20062;-59
2022/02/22 08:34:07;;;;;;;0.52;0.13;;;;;;;24.43;47.66;100038.50;5072714;28;20024;-59
2022/02/22 08:36:33;;;;;;;1.38;0.10;;;;;;;24.45;47.35;100048.19;5072464;28;20118;-59
2022/02/22 08:39:01;;;;;;;0.75;0.10;;;;;;;24.49;47.11;100054.06;5071918;28;20059;-60
2022/02/22 08:41:27;;;;;;;0.00;0.00;;;;;;;24.48;47.11;100057.88;5072327;28;20028;-59
2022/02/22 08:43:52;;;;;;;0.30;0.10;;;;;;;24.48;48.24;100068.88;5071829;28;20023;-59
2022/02/22 08:46:19;;;;;;;0.00;0.00;;;;;;;24.44;47.02;100073.16;5072391;28;20028;-59
2022/02/22 08:48:44;;;;;;;0.30;0.10;;;;;;;24.38;46.93;100063.09;5072119;28;20021;-59
2022/02/22 08:51:10;;;;;;;0.15;0.10;;;;;;;24.46;46.93;100076.50;5072268;28;20028;-59
2022/02/22 08:53:35;;;;;;;0.30;0.00;;;;;;;24.47;47.61;100078.19;5068031;28;20369;-59
2022/02/22 08:56:02;;;;;;;0.65;0.17;;;;;;;24.46;46.61;100076.50;5051759;28;20029;-59
2022/02/22 08:58:27;;;;;;;0.20;0.08;;;;;;;24.50;48.17;100088.72;5052169;28;20037;-59
2022/02/22 09:00:53;;;;;;;0.00;0.00;;;;;;;24.52;46.45;100083.81;5051927;28;20187;-59
2022/02/22 09:03:18;;;;;;;0.10;0.00;;;;;;;24.49;46.36;100081.53;5052148;28;20052;-59
2022/02/22 09:05:43;;;;;;;0.08;0.08;;;;;;;24.48;46.74;100085.34;5051889;28;20028;-59
2022/02/22 09:08:09;;;;;;;0.08;0.00;;;;;;;24.50;46.76;100096.94;5051964;28;20075;-59
2022/02/22 09:10:34;;;;;;;0.22;0.10;;;;;;;24.51;47.21;100101.38;5052078;28;20380;-59
2022/02/22 09:13:00;;;;;;;0.55;0.30;;;;;;;24.48;47.63;100108.16;5051890;28;20372;-59
2022/02/22 09:15:28;;;;;;;0.20;0.05;;;;;;;24.47;46.75;100116.66;5051758;28;20021;-59
2022/02/22 09:17:53;;;;;;;0.50;0.28;;;;;;;24.50;46.82;100124.44;5051665;28;20071;-59
2022/02/22 09:20:22;;;;;;;0.00;0.00;;;;;;;24.46;47.04;100123.22;5052592;28;20021;-59
2022/02/22 09:22:47;;;;;;;0.63;0.10;;;;;;;24.48;47.31;100132.06;5051868;28;20024;-59
2022/02/22 09:25:18;;;;;;;0.00;0.00;;;;;;;24.45;46.71;100132.53;5052114;28;20020;-59
2022/02/22 09:27:44;;;;;;;0.20;0.10;;;;;;;24.52;47.27;100141.53;5051777;28;20360;-59
2022/02/22 09:30:13;;;;;;;0.20;0.20;;;;;;;24.47;46.96;100144.13;5051210;28;20067;-59
2022/02/22 09:32:39;;;;;;;0.35;0.10;;;;;;;24.47;46.15;100147.72;5050566;28;20021;-59
2022/02/22 09:35:05;;;;;;;0.65;0.20;;;;;;;24.44;46.49;100150.06;5052022;28;20071;-59
2022/02/22 09:37:30;;;;;;;0.03;0.03;;;;;;;24.46;47.40;100143.28;5051839;28;20040;-59
2022/02/22 09:39:56;;;;;;;0.10;0.10;;;;;;;24.44;47.31;100155.56;5051470;28;20021;-59
2022/02/22 09:42:21;;;;;;;0.22;0.10;;;;;;;24.50;46.76;100160.16;5051806;28;20067;-59
2022/02/22 09:44:46;;;;;;;0.20;0.10;;;;;;;24.52;46.96;100171.75;5051656;28;20461;-59
2022/02/22 09:47:12;;;;;;;0.40;0.10;;;;;;;24.54;46.87;100177.88;5051697;28;20067;-59
2022/02/22 09:49:37;;;;;;;0.30;0.00;;;;;;;24.49;46.26;100191.44;5046596;28;20412;-59
2022/02/22 09:52:03;;;;;;;0.60;0.10;;;;;;;24.54;47.21;100184.22;5050995;28;20025;-59
2022/02/22 09:54:29;;;;;;;1.30;0.00;;;;;;;24.51;46.79;100183.81;5058261;28;20546;-59
2022/02/22 09:56:57;;;;;;;0.08;0.08;;;;;;;24.51;47.13;100189.28;5053358;28;20223;-59
2022/02/22 09:59:24;;;;;;;0.20;0.10;;;;;;;24.47;46.56;100193.56;5053851;28;20021;-59
2022/02/22 10:01:51;;;;;;;0.10;0.00;;;;;;;24.51;46.38;100194.78;5053442;28;20028;-59
2022/02/22 10:04:17;;;;;;;3.65;0.10;;;;;;;24.50;47.00;100190.38;5053877;28;20013;-59
2022/02/22 10:06:43;;;;;;;1.55;0.20;;;;;;;24.51;47.40;100189.28;5053560;28;20376;-58
2022/02/22 10:09:11;;;;;;;2.28;0.20;;;;;;;24.54;45.93;100188.88;5053587;28;20020;-59
2022/02/22 10:11:48;;;;;;;0.88;0.20;;;;;;;24.51;46.52;100192.88;5053678;28;20020;-59
2022/02/22 10:14:24;;;;;;;0.32;0.10;;;;;;;24.53;46.55;100198.19;5053421;28;20016;-59
2022/02/22 10:16:50;;;;;;;1.60;0.85;;;;;;;24.54;46.92;100210.84;5053267;28;20430;-59
2022/02/22 10:19:17;;;;;;;1.38;0.10;;;;;;;24.51;46.82;100212.13;5053612;28;20056;-58
2022/02/22 10:21:47;;;;;;;1.40;0.10;;;;;;;24.49;47.04;100216.16;5053241;28;20025;-59
2022/02/22 10:24:15;;;;;;;1.02;0.20;;;;;;;24.52;45.79;100212.94;5056156;28;20534;-58
2022/02/22 10:26:41;;;;;;;1.60;0.20;;;;;;;24.52;46.69;100224.81;5051792;28;20111;-58
2022/02/22 10:29:14;;;;;;;3.67;0.20;;;;;;;24.48;46.47;100226.31;5053634;28;20113;-59
2022/02/22 10:31:40;;;;;;;2.88;0.10;;;;;;;24.49;47.05;100229.91;5053024;28;20116;-59
2022/02/22 10:34:05;;;;;;;1.65;0.17;;;;;;;24.50;46.59;100237.06;5052880;28;20299;-58
2022/02/22 10:36:37;;;;;;;0.63;0.10;;;;;;;24.49;46.62;100235.41;5057375;28;20464;-59
2022/02/22 10:39:07;;;;;;;2.75;0.30;;;;;;;24.46;46.53;100230.34;5052980;28;20029;-59
2022/02/22 10:41:44;;;;;;;0.40;0.10;;;;;;;24.57;47.12;100244.19;5048508;28;20400;-59
2022/02/22 10:44:21;;;;;;;0.10;0.10;;;;;;;24.53;46.31;100233.91;5055195;28;20496;-59
2022/02/22 10:46:49;;;;;;;0.30;0.20;;;;;;;24.53;46.15;100242.16;5050733;28;20472;-59
2022/02/22 10:49:18;;;;;;;0.30;0.10;;;;;;;24.52;47.02;100244.06;5050003;28;20059;-59
2022/02/22 10:51:45;;;;;;;1.20;0.20;;;;;;;24.51;47.51;100255.25;5049854;28;20032;-59
2022/02/22 10:54:17;;;;;;;0.10;0.00;;;;;;;24.54;45.91;100241.91;5046703;28;20053;-59
2022/02/22 10:56:42;;;;;;;0.28;0.15;;;;;;;24.51;47.49;100244.25;5048128;28;20473;-59
2022/02/22 10:59:07;;;;;;;0.95;0.10;;;;;;;24.52;46.70;100240.44;5052549;28;20039;-59
2022/02/22 11:01:33;;;;;;;0.32;0.25;;;;;;;24.58;46.80;100253.28;5050682;28;20456;-59
2022/02/22 11:03:58;;;;;;;1.20;0.10;;;;;;;24.54;46.59;100243.81;5047094;28;20022;-58
2022/02/22 11:06:25;;;;;;;0.90;0.00;;;;;;;24.53;46.64;100242.16;5062788;28;20632;-59
2022/02/22 11:08:53;;;;;;;0.10;0.10;;;;;;;24.55;46.59;100251.84;5053664;28;20032;-59
2022/02/22 11:11:33;;;;;;;0.43;0.10;;;;;;;24.57;46.31;100243.38;5053937;28;20025;-58
2022/02/22 11:14:11;;;;;;;1.33;0.20;;;;;;;24.55;47.92;100240.00;5058238;28;20127;-58
2022/02/22 11:16:47;;;;;;;0.20;0.10;;;;;;;24.56;47.13;100236.19;5052467;28;20036;-59
2022/02/22 11:19:19;;;;;;;1.08;0.20;;;;;;;24.52;46.02;100229.44;5056416;28;20383;-59
2022/02/22 11:21:46;;;;;;;0.90;0.10;;;;;;;24.53;47.06;100220.16;5057366;28;20459;-59
2022/02/22 11:24:12;;;;;;;1.10;0.40;;;;;;;24.53;46.77;100226.50;5053539;28;20020;-58
2022/02/22 11:26:59;;;;;;;1.42;0.10;;;;;;;24.57;46.69;100232.38;5053642;28;20032;-58